createdAt,value
2016-08-20T00:00:56.300Z,18.88
2016-08-20T00:01:56.710Z,18.84
2016-08-20T00:02:57.549Z,18.78
2016-08-20T00:03:55.365Z,18.81
2016-08-20T00:04:54.577Z,18.9
2016-08-20T00:05:56.558Z,18.86
2016-08-20T00:06:57.922Z,18.78
2016-08-20T00:07:56.313Z,18.84
2016-08-20T00:08:55.722Z,18.77
2016-08-20T00:09:56.740Z,18.8
2016-08-20T00:10:56.163Z,18.71
2016-08-20T00:11:57.073Z,18.74
2016-08-20T00:12:56.162Z,18.77
2016-08-20T00:13:56.739Z,18.73
2016-08-20T00:14:56.908Z,18.75
2016-08-20T00:15:57.344Z,18.75
2016-08-20T00:16:55.932Z,18.7
2016-08-20T00:17:56.992Z,18.66
2016-08-20T00:18:57.283Z,18.78
2016-08-20T00:19:57.255Z,18.78
2016-08-20T00:20:56.499Z,18.74
2016-08-20T00:21:55.775Z,18.75
2016-08-20T00:22:55.402Z,18.75
2016-08-20T00:23:57.279Z,18.65
2016-08-20T00:24:56.405Z,18.58
2016-08-20T00:25:56.187Z,18.62
2016-08-20T00:26:56.480Z,18.56
2016-08-20T00:27:57.133Z,18.41
2016-08-20T00:28:56.781Z,18.45
2016-08-20T00:29:57.381Z,18.44
2016-08-20T00:30:56.772Z,18.55
2016-08-20T00:31:58.011Z,18.56
2016-08-20T00:32:57.165Z,18.53
2016-08-20T00:33:57.207Z,18.66
2016-08-20T00:34:57.337Z,18.7
2016-08-20T00:35:55.834Z,18.66
2016-08-20T00:36:57.699Z,18.75
2016-08-20T00:37:57.020Z,18.71
2016-08-20T00:38:56.567Z,18.65
2016-08-20T00:39:56.976Z,18.65
2016-08-20T00:40:57.501Z,18.56
2016-08-20T00:41:57.632Z,18.75
2016-08-20T00:42:57.180Z,18.74
2016-08-20T00:43:56.453Z,18.71
2016-08-20T00:44:55.748Z,18.59
2016-08-20T00:45:57.875Z,18.53
2016-08-20T00:46:57.617Z,18.49
2016-08-20T00:47:57.167Z,18.55
2016-08-20T00:48:56.939Z,18.44
2016-08-20T00:49:57.972Z,18.47
2016-08-20T00:50:58.094Z,18.52
2016-08-20T00:51:59.146Z,18.56
2016-08-20T00:52:58.002Z,18.6
2016-08-20T00:53:57.968Z,18.58
2016-08-20T00:54:57.060Z,18.55
2016-08-20T00:55:57.363Z,18.59
2016-08-20T00:56:56.946Z,18.55
2016-08-20T00:57:58.488Z,18.47
2016-08-20T00:58:57.505Z,18.47
2016-08-20T00:59:59.575Z,18.33
2016-08-20T01:00:58.022Z,18.35
2016-08-20T01:01:57.286Z,18.35
2016-08-20T01:02:57.426Z,18.47
2016-08-20T01:03:57.048Z,18.45
2016-08-20T01:04:58.015Z,18.45
2016-08-20T01:05:59.736Z,18.45
2016-08-20T01:06:57.779Z,18.47
2016-08-20T01:07:57.651Z,18.37
2016-08-20T01:08:57.033Z,18.38
2016-08-20T01:09:57.004Z,18.45
2016-08-20T01:10:57.185Z,18.4
2016-08-20T01:11:57.790Z,18.43
2016-08-20T01:12:57.782Z,18.4
2016-08-20T01:13:56.965Z,18.52
2016-08-20T01:14:59.393Z,18.47
2016-08-20T01:15:59.173Z,18.6
2016-08-20T01:16:57.501Z,18.6
2016-08-20T01:17:57.640Z,18.56
2016-08-20T01:18:57.788Z,18.52
2016-08-20T01:19:58.243Z,18.52
2016-08-20T01:20:57.403Z,18.43
2016-08-20T01:21:57.948Z,18.38
2016-08-20T01:23:00.334Z,18.44
2016-08-20T01:23:58.288Z,18.62
2016-08-20T01:24:57.724Z,18.62
2016-08-20T01:25:58.395Z,18.44
2016-08-20T01:26:57.052Z,18.41
2016-08-20T01:27:58.131Z,18.49
2016-08-20T01:28:57.705Z,18.45
2016-08-20T01:29:59.804Z,18.44
2016-08-20T01:30:58.389Z,18.44
2016-08-20T01:31:58.460Z,18.4
2016-08-20T01:32:57.619Z,18.35
2016-08-20T01:33:58.456Z,18.37
2016-08-20T01:35:00.296Z,18.41
2016-08-20T01:35:59.141Z,18.37
2016-08-20T01:36:58.123Z,18.38
2016-08-20T01:37:58.253Z,18.45
2016-08-20T01:38:59.304Z,18.38
2016-08-20T01:39:58.090Z,18.37
2016-08-20T01:40:58.913Z,18.41
2016-08-20T01:41:59.143Z,18.43
2016-08-20T01:42:59.273Z,18.4
2016-08-20T01:43:59.297Z,18.43
2016-08-20T01:44:59.575Z,18.4
2016-08-20T01:45:58.924Z,18.49
2016-08-20T01:46:59.358Z,18.37
2016-08-20T01:47:58.448Z,18.45
2016-08-20T01:48:58.165Z,18.47
2016-08-20T01:49:59.001Z,18.43
2016-08-20T01:50:58.339Z,18.44
2016-08-20T01:51:58.074Z,18.49
2016-08-20T01:52:58.418Z,18.5
2016-08-20T01:53:58.688Z,18.53
2016-08-20T01:54:58.404Z,18.56
2016-08-20T01:55:59.118Z,18.53
2016-08-20T01:56:58.921Z,18.49
2016-08-20T01:57:59.501Z,18.41
2016-08-20T01:58:59.687Z,18.34
2016-08-20T02:00:00.931Z,18.25
2016-08-20T02:01:00.509Z,18.28
2016-08-20T02:01:58.110Z,18.28
2016-08-20T02:02:58.848Z,18.28
2016-08-20T02:03:57.973Z,18.37
2016-08-20T02:05:00.426Z,18.52
2016-08-20T02:05:59.447Z,18.34
2016-08-20T02:06:59.191Z,18.4
2016-08-20T02:07:59.032Z,18.35
2016-08-20T02:08:59.695Z,18.25
2016-08-20T02:09:59.991Z,18.29
2016-08-20T02:10:59.601Z,18.25
2016-08-20T02:11:58.866Z,18.26
2016-08-20T02:12:59.894Z,18.25
2016-08-20T02:13:59.958Z,18.34
2016-08-20T02:14:59.353Z,18.34
2016-08-20T02:15:59.730Z,18.34
2016-08-20T02:16:59.357Z,18.28
2016-08-20T02:18:00.302Z,18.29
2016-08-20T02:18:59.475Z,18.26
2016-08-20T02:19:59.871Z,18.31
2016-08-20T02:20:59.635Z,18.23
2016-08-20T02:21:58.819Z,18.22
2016-08-20T02:23:00.138Z,18.23
2016-08-20T02:24:00.157Z,18.19
2016-08-20T02:25:00.034Z,18.15
2016-08-20T02:25:58.489Z,18.28
2016-08-20T02:27:00.970Z,18.25
2016-08-20T02:27:59.050Z,18.28
2016-08-20T02:29:00.329Z,18.15
2016-08-20T02:30:00.345Z,18.15
2016-08-20T02:31:00.221Z,18.1
2016-08-20T02:32:00.470Z,18.04
2016-08-20T02:32:59.145Z,18.08
2016-08-20T02:34:00.029Z,18.07
2016-08-20T02:34:59.675Z,18.05
2016-08-20T02:35:59.781Z,17.97
2016-08-20T02:37:01.060Z,17.98
2016-08-20T02:38:02.543Z,17.95
2016-08-20T02:39:00.048Z,17.85
2016-08-20T02:40:01.057Z,17.89
2016-08-20T02:40:59.505Z,17.85
2016-08-20T02:42:00.686Z,17.89
2016-08-20T02:43:01.912Z,17.87
2016-08-20T02:43:59.809Z,17.92
2016-08-20T02:45:01.658Z,17.89
2016-08-20T02:46:00.638Z,17.89
2016-08-20T02:47:00.172Z,17.8
2016-08-20T02:47:59.447Z,17.87
2016-08-20T02:49:00.332Z,17.9
2016-08-20T02:49:59.556Z,17.92
2016-08-20T02:51:00.853Z,17.9
2016-08-20T02:52:01.547Z,17.86
2016-08-20T02:52:59.907Z,17.89
2016-08-20T02:54:00.521Z,17.89
2016-08-20T02:55:01.008Z,17.8
2016-08-20T02:56:01.264Z,17.83
2016-08-20T02:57:01.108Z,17.79
2016-08-20T02:58:01.254Z,17.9
2016-08-20T02:59:01.496Z,17.82
2016-08-20T03:00:00.911Z,17.71
2016-08-20T03:01:01.335Z,17.78
2016-08-20T03:01:59.997Z,17.78
2016-08-20T03:03:02.960Z,17.8
2016-08-20T03:04:00.999Z,17.68
2016-08-20T03:05:02.145Z,17.78
2016-08-20T03:06:02.710Z,17.85
2016-08-20T03:07:01.718Z,17.89
2016-08-20T03:08:00.864Z,17.72
2016-08-20T03:08:59.798Z,17.85
2016-08-20T03:10:00.325Z,17.87
2016-08-20T03:11:00.653Z,17.85
2016-08-20T03:12:01.720Z,17.8
2016-08-20T03:13:01.643Z,17.78
2016-08-20T03:14:00.920Z,17.8
2016-08-20T03:15:01.306Z,17.76
2016-08-20T03:16:00.527Z,17.86
2016-08-20T03:16:59.713Z,17.87
2016-08-20T03:18:00.803Z,17.8
2016-08-20T03:19:01.879Z,17.79
2016-08-20T03:20:00.298Z,17.72
2016-08-20T03:20:59.756Z,17.79
2016-08-20T03:22:02.670Z,17.86
2016-08-20T03:23:00.379Z,17.87
2016-08-20T03:24:01.249Z,17.83
2016-08-20T03:25:02.274Z,17.78
2016-08-20T03:26:01.702Z,17.71
2016-08-20T03:27:02.901Z,17.76
2016-08-20T03:28:03.266Z,17.87
2016-08-20T03:29:02.236Z,17.85
2016-08-20T03:30:00.027Z,17.98
2016-08-20T03:31:02.142Z,17.97
2016-08-20T03:32:01.466Z,17.92
2016-08-20T03:33:01.219Z,18.01
2016-08-20T03:34:03.536Z,17.95
2016-08-20T03:35:02.293Z,17.95
2016-08-20T03:36:02.046Z,17.95
2016-08-20T03:37:03.136Z,18.04
2016-08-20T03:38:01.318Z,17.97
2016-08-20T03:39:01.978Z,18
2016-08-20T03:40:00.633Z,18.04
2016-08-20T03:41:01.965Z,18.03
2016-08-20T03:42:01.088Z,17.97
2016-08-20T03:43:00.980Z,18.07
2016-08-20T03:44:01.988Z,18
2016-08-20T03:45:03.298Z,18
2016-08-20T03:46:01.885Z,18
2016-08-20T03:47:01.518Z,17.98
2016-08-20T03:48:02.050Z,17.95
2016-08-20T03:49:01.817Z,17.94
2016-08-20T03:50:00.989Z,17.87
2016-08-20T03:51:02.913Z,18.01
2016-08-20T03:52:02.077Z,17.94
2016-08-20T03:53:01.996Z,18.03
2016-08-20T03:54:03.945Z,18.07
2016-08-20T03:55:02.184Z,17.95
2016-08-20T03:56:01.481Z,18.08
2016-08-20T03:57:02.325Z,18.04
2016-08-20T03:58:01.858Z,17.98
2016-08-20T03:59:01.191Z,18.1
2016-08-20T04:00:02.501Z,18.18
2016-08-20T04:01:02.521Z,18.13
2016-08-20T04:02:02.646Z,18.11
2016-08-20T04:03:02.891Z,18.05
2016-08-20T04:04:02.880Z,18.1
2016-08-20T04:05:03.078Z,18.1
2016-08-20T04:06:02.334Z,18.18
2016-08-20T04:07:02.126Z,18.05
2016-08-20T04:08:02.967Z,18.07
2016-08-20T04:09:02.607Z,18.13
2016-08-20T04:10:03.817Z,18.07
2016-08-20T04:11:02.305Z,18.07
2016-08-20T04:12:01.840Z,18.1
2016-08-20T04:13:01.806Z,18.18
2016-08-20T04:14:02.129Z,18.07
2016-08-20T04:15:04.272Z,18.16
2016-08-20T04:16:03.515Z,18.07
2016-08-20T04:17:02.893Z,18.11
2016-08-20T04:18:02.584Z,18.1
2016-08-20T04:19:02.514Z,18.15
2016-08-20T04:20:04.017Z,18.11
2016-08-20T04:21:02.725Z,18.16
2016-08-20T04:22:02.778Z,18.15
2016-08-20T04:23:00.633Z,18.1
2016-08-20T04:24:03.267Z,18.15
2016-08-20T04:25:02.796Z,18.18
2016-08-20T04:26:03.930Z,18.15
2016-08-20T04:27:03.047Z,18.1
2016-08-20T04:28:01.921Z,18.08
2016-08-20T04:29:01.866Z,18.22
2016-08-20T04:30:02.601Z,18.05
2016-08-20T04:31:02.771Z,18.07
2016-08-20T04:32:05.165Z,18.23
2016-08-20T04:33:02.447Z,18.18
2016-08-20T04:34:03.206Z,18.13
2016-08-20T04:35:04.018Z,18.15
2016-08-20T04:36:02.586Z,18.25
2016-08-20T04:37:02.856Z,18.18
2016-08-20T04:38:02.802Z,18.25
2016-08-20T04:39:03.519Z,18.23
2016-08-20T04:40:02.677Z,18.11
2016-08-20T04:41:04.472Z,18.11
2016-08-20T04:42:04.052Z,18.22
2016-08-20T04:43:04.787Z,18.13
2016-08-20T04:44:04.397Z,18.15
2016-08-20T04:45:04.589Z,18.26
2016-08-20T04:46:04.392Z,18.26
2016-08-20T04:47:04.309Z,18.33
2016-08-20T04:48:02.453Z,18.23
2016-08-20T04:49:05.117Z,18.23
2016-08-20T04:50:03.492Z,18.22
2016-08-20T04:51:04.569Z,18.25
2016-08-20T04:52:02.979Z,18.28
2016-08-20T04:53:02.803Z,18.35
2016-08-20T04:54:03.297Z,18.37
2016-08-20T04:55:04.408Z,18.41
2016-08-20T04:56:03.506Z,18.23
2016-08-20T04:57:03.172Z,18.23
2016-08-20T04:58:05.080Z,18.26
2016-08-20T04:59:03.309Z,18.23
2016-08-20T05:00:04.851Z,18.33
2016-08-20T05:01:03.134Z,18.29
2016-08-20T05:02:03.477Z,18.29
2016-08-20T05:03:04.808Z,18.37
2016-08-20T05:04:04.958Z,18.4
2016-08-20T05:05:04.447Z,18.49
2016-08-20T05:06:04.775Z,18.38
2016-08-20T05:07:05.770Z,18.43
2016-08-20T05:08:04.260Z,18.33
2016-08-20T05:09:02.786Z,18.41
2016-08-20T05:10:04.638Z,18.44
2016-08-20T05:11:04.007Z,18.38
2016-08-20T05:12:05.169Z,18.44
2016-08-20T05:13:04.319Z,18.35
2016-08-20T05:14:05.119Z,18.43
2016-08-20T05:15:03.558Z,18.49
2016-08-20T05:16:04.635Z,18.43
2016-08-20T05:17:04.287Z,18.44
2016-08-20T05:18:04.764Z,18.4
2016-08-20T05:19:04.128Z,18.43
2016-08-20T05:20:04.564Z,18.37
2016-08-20T05:21:04.209Z,18.49
2016-08-20T05:22:04.225Z,18.44
2016-08-20T05:23:03.062Z,18.44
2016-08-20T05:24:05.877Z,18.45
2016-08-20T05:25:04.580Z,18.4
2016-08-20T05:26:03.962Z,18.28
2016-08-20T05:27:03.187Z,18.34
2016-08-20T05:28:05.163Z,18.35
2016-08-20T05:29:04.178Z,18.45
2016-08-20T05:30:04.084Z,18.37
2016-08-20T05:31:03.542Z,18.47
2016-08-20T05:32:04.798Z,18.43
2016-08-20T05:33:04.130Z,18.49
2016-08-20T05:34:04.794Z,18.4
2016-08-20T05:35:04.180Z,18.47
2016-08-20T05:36:05.801Z,18.43
2016-08-20T05:37:04.637Z,18.37
2016-08-20T05:38:03.641Z,18.35
2016-08-20T05:39:05.679Z,18.41
2016-08-20T05:40:06.012Z,18.38
2016-08-20T05:41:03.855Z,18.43
2016-08-20T05:42:05.519Z,18.44
2016-08-20T05:43:06.986Z,18.41
2016-08-20T05:44:05.079Z,18.31
2016-08-20T05:45:06.520Z,18.22
2016-08-20T05:46:05.684Z,18.25
2016-08-20T05:47:05.450Z,18.28
2016-08-20T05:48:04.319Z,18.33
2016-08-20T05:49:06.660Z,18.52
2016-08-20T05:50:05.918Z,18.41
2016-08-20T05:51:06.374Z,18.4
2016-08-20T05:52:05.774Z,18.47
2016-08-20T05:53:05.727Z,18.45
2016-08-20T05:54:05.012Z,18.49
2016-08-20T05:55:04.950Z,18.56
2016-08-20T05:56:05.761Z,18.47
2016-08-20T05:57:06.750Z,18.5
2016-08-20T05:58:04.700Z,18.5
2016-08-20T05:59:06.207Z,18.56
2016-08-20T06:00:06.233Z,18.58
2016-08-20T06:01:06.506Z,18.53
2016-08-20T06:02:05.519Z,18.55
2016-08-20T06:03:06.547Z,18.53
2016-08-20T06:04:04.585Z,18.55
2016-08-20T06:05:06.335Z,18.62
2016-08-20T06:06:05.626Z,18.62
2016-08-20T06:07:04.905Z,18.58
2016-08-20T06:08:05.000Z,18.55
2016-08-20T06:09:05.804Z,18.56
2016-08-20T06:10:07.624Z,18.62
2016-08-20T06:11:06.030Z,18.7
2016-08-20T06:12:06.156Z,18.66
2016-08-20T06:13:05.762Z,18.63
2016-08-20T06:14:05.991Z,18.65
2016-08-20T06:15:04.762Z,18.63
2016-08-20T06:16:07.110Z,18.73
2016-08-20T06:17:04.969Z,18.84
2016-08-20T06:18:06.972Z,18.84
2016-08-20T06:19:05.821Z,18.95
2016-08-20T06:20:06.712Z,18.99
2016-08-20T06:21:04.833Z,18.98
2016-08-20T06:22:06.642Z,19.12
2016-08-20T06:23:04.745Z,19.22
2016-08-20T06:24:06.219Z,19.26
2016-08-20T06:25:05.587Z,19.24
2016-08-20T06:26:06.614Z,19.18
2016-08-20T06:27:05.632Z,19.41
2016-08-20T06:28:06.427Z,19.39
2016-08-20T06:29:06.651Z,19.36
2016-08-20T06:30:04.794Z,19.29
2016-08-20T06:31:07.616Z,19.39
2016-08-20T06:32:06.070Z,19.39
2016-08-20T06:33:06.397Z,19.45
2016-08-20T06:34:05.952Z,19.51
2016-08-20T06:35:07.554Z,19.47
2016-08-20T06:36:06.532Z,19.71
2016-08-20T06:37:08.347Z,19.84
2016-08-20T06:38:07.441Z,19.79
2016-08-20T06:39:06.841Z,19.84
2016-08-20T06:40:06.140Z,19.99
2016-08-20T06:41:06.270Z,20.02
2016-08-20T06:42:07.469Z,19.94
2016-08-20T06:43:07.780Z,20.04
2016-08-20T06:44:05.943Z,20.03
2016-08-20T06:45:05.794Z,20.06
2016-08-20T06:46:07.216Z,20.06
2016-08-20T06:47:06.725Z,20.07
2016-08-20T06:48:07.979Z,19.94
2016-08-20T06:49:05.460Z,20.03
2016-08-20T06:50:07.170Z,20.11
2016-08-20T06:51:05.461Z,20.14
2016-08-20T06:52:06.182Z,20.13
2016-08-20T06:53:06.111Z,20.24
2016-08-20T06:54:07.193Z,20.26
2016-08-20T06:55:06.150Z,20.36
2016-08-20T06:56:08.157Z,20.32
2016-08-20T06:57:06.672Z,20.21
2016-08-20T06:58:08.406Z,20.22
2016-08-20T06:59:06.453Z,20.28
2016-08-20T07:00:06.118Z,20.18
2016-08-20T07:01:07.625Z,20.02
2016-08-20T07:02:05.868Z,20.1
2016-08-20T07:03:08.061Z,20.19
2016-08-20T07:04:06.091Z,20.19
2016-08-20T07:05:06.836Z,20.26
2016-08-20T07:06:06.552Z,20.18
2016-08-20T07:07:06.443Z,20.21
2016-08-20T07:08:07.158Z,20.26
2016-08-20T07:09:07.868Z,20.22
2016-08-20T07:10:07.788Z,20.29
2016-08-20T07:11:07.986Z,20.44
2016-08-20T07:12:06.842Z,20.55
2016-08-20T07:13:07.102Z,20.72
2016-08-20T07:14:07.188Z,20.56
2016-08-20T07:15:07.784Z,20.66
2016-08-20T07:16:08.110Z,20.55
2016-08-20T07:17:07.919Z,20.51
2016-08-20T07:18:05.874Z,20.63
2016-08-20T07:19:07.297Z,20.67
2016-08-20T07:20:08.006Z,20.72
2016-08-20T07:21:06.867Z,20.93
2016-08-20T07:22:07.692Z,20.97
2016-08-20T07:23:06.298Z,20.97
2016-08-20T07:24:09.091Z,20.92
2016-08-20T07:25:07.373Z,20.93
2016-08-20T07:26:07.002Z,20.99
2016-08-20T07:27:06.967Z,20.92
2016-08-20T07:28:08.674Z,20.95
2016-08-20T07:29:07.123Z,20.84
2016-08-20T07:30:06.437Z,20.97
2016-08-20T07:31:08.056Z,21.22
2016-08-20T07:32:07.531Z,21.15
2016-08-20T07:33:06.568Z,21.21
2016-08-20T07:34:07.114Z,21.15
2016-08-20T07:35:08.001Z,21.02
2016-08-20T07:36:09.951Z,20.97
2016-08-20T07:37:06.598Z,21.14
2016-08-20T07:38:06.758Z,21.32
2016-08-20T07:39:08.565Z,21.36
2016-08-20T07:40:08.684Z,21.21
2016-08-20T07:41:07.732Z,21.29
2016-08-20T07:42:08.643Z,21.36
2016-08-20T07:43:07.750Z,21.22
2016-08-20T07:44:08.771Z,21.35
2016-08-20T07:45:08.840Z,21.14
2016-08-20T07:46:07.338Z,21
2016-08-20T07:47:06.776Z,21.33
2016-08-20T07:48:07.062Z,21.24
2016-08-20T07:49:08.081Z,21.45
2016-08-20T07:50:09.515Z,21.5
2016-08-20T07:51:08.383Z,21.69
2016-08-20T07:52:07.733Z,21.85
2016-08-20T07:53:09.967Z,21.85
2016-08-20T07:54:09.398Z,22.04
2016-08-20T07:55:09.049Z,21.96
2016-08-20T07:56:09.113Z,22.08
2016-08-20T07:57:09.578Z,21.62
2016-08-20T07:58:09.666Z,21.33
2016-08-20T07:59:09.257Z,21.4
2016-08-20T08:00:08.818Z,21.64
2016-08-20T08:01:08.082Z,21.75
2016-08-20T08:02:08.027Z,21.75
2016-08-20T08:03:08.412Z,21.75
2016-08-20T08:04:07.111Z,21.66
2016-08-20T08:05:09.094Z,21.85
2016-08-20T08:06:07.689Z,21.96
2016-08-20T08:07:07.527Z,21.69
2016-08-20T08:08:08.409Z,21.6
2016-08-20T08:09:08.577Z,21.52
2016-08-20T08:10:09.083Z,21.4
2016-08-20T08:11:09.161Z,21.69
2016-08-20T08:12:09.152Z,21.92
2016-08-20T08:13:07.565Z,21.52
2016-08-20T08:14:09.695Z,21.6
2016-08-20T08:15:09.626Z,21.46
2016-08-20T08:16:08.723Z,21.42
2016-08-20T08:17:08.624Z,21.43
2016-08-20T08:18:10.464Z,21.66
2016-08-20T08:19:08.864Z,21.55
2016-08-20T08:20:09.553Z,21.69
2016-08-20T08:21:07.964Z,21.64
2016-08-20T08:22:08.471Z,21.58
2016-08-20T08:23:08.314Z,21.96
2016-08-20T08:24:11.019Z,21.75
2016-08-20T08:25:10.275Z,21.7
2016-08-20T08:26:08.550Z,21.66
2016-08-20T08:27:08.642Z,21.83
2016-08-20T08:28:08.933Z,22.45
2016-08-20T08:29:09.599Z,22.41
2016-08-20T08:30:09.657Z,21.89
2016-08-20T08:31:09.536Z,22.13
2016-08-20T08:32:08.423Z,21.95
2016-08-20T08:33:09.106Z,21.83
2016-08-20T08:34:09.989Z,22.22
2016-08-20T08:35:08.774Z,22.53
2016-08-20T08:36:09.008Z,22.22
2016-08-20T08:37:11.187Z,21.89
2016-08-20T08:38:09.360Z,21.93
2016-08-20T08:39:09.037Z,21.93
2016-08-20T08:40:08.421Z,21.7
2016-08-20T08:41:08.889Z,21.72
2016-08-20T08:42:10.377Z,21.72
2016-08-20T08:43:08.612Z,21.76
2016-08-20T08:44:10.875Z,21.66
2016-08-20T08:45:10.426Z,21.76
2016-08-20T08:46:10.034Z,22.04
2016-08-20T08:47:12.933Z,21.66
2016-08-20T08:48:09.889Z,21.62
2016-08-20T08:49:10.525Z,21.52
2016-08-20T08:50:10.497Z,21.5
2016-08-20T08:51:09.039Z,21.66
2016-08-20T08:52:10.733Z,21.61
2016-08-20T08:53:10.378Z,21.73
2016-08-20T08:54:10.131Z,22.32
2016-08-20T08:55:12.034Z,22.45
2016-08-20T08:56:11.567Z,22.22
2016-08-20T08:57:09.077Z,22.18
2016-08-20T08:58:10.449Z,22.28
2016-08-20T08:59:10.324Z,22.38
2016-08-20T09:00:09.112Z,22.15
2016-08-20T09:01:09.572Z,22.3
2016-08-20T09:02:11.610Z,22.1
2016-08-20T09:03:11.140Z,22.18
2016-08-20T09:04:10.445Z,22.35
2016-08-20T09:05:10.046Z,22.26
2016-08-20T09:06:09.133Z,21.96
2016-08-20T09:07:11.202Z,22.22
2016-08-20T09:08:10.867Z,21.98
2016-08-20T09:09:11.283Z,21.6
2016-08-20T09:10:10.696Z,21.76
2016-08-20T09:11:10.976Z,21.67
2016-08-20T09:12:11.739Z,21.72
2016-08-20T09:13:10.576Z,22.1
2016-08-20T09:14:10.949Z,22.39
2016-08-20T09:15:11.709Z,22.8
2016-08-20T09:16:10.593Z,22.85
2016-08-20T09:17:10.671Z,22.41
2016-08-20T09:18:12.482Z,22.76
2016-08-20T09:19:10.573Z,22.43
2016-08-20T09:20:10.281Z,22.54
2016-08-20T09:21:11.130Z,23.28
2016-08-20T09:22:11.125Z,23.63
2016-08-20T09:23:09.733Z,23.03
2016-08-20T09:24:10.010Z,23.18
2016-08-20T09:25:10.056Z,22.87
2016-08-20T09:26:10.428Z,22.43
2016-08-20T09:27:11.165Z,22.25
2016-08-20T09:28:10.698Z,22.22
2016-08-20T09:29:11.851Z,22.02
2016-08-20T09:30:10.051Z,22.04
2016-08-20T09:31:11.136Z,22.22
2016-08-20T09:32:10.696Z,22.6
2016-08-20T09:33:10.363Z,22.57
2016-08-20T09:34:12.384Z,22.69
2016-08-20T09:35:11.873Z,22.66
2016-08-20T09:36:10.353Z,22.73
2016-08-20T09:37:12.325Z,23.96
2016-08-20T09:38:11.429Z,24.32
2016-08-20T09:39:11.948Z,24.24
2016-08-20T09:40:10.307Z,23.84
2016-08-20T09:41:12.213Z,23.43
2016-08-20T09:42:12.521Z,24.57
2016-08-20T09:43:11.747Z,24.91
2016-08-20T09:44:12.872Z,24.23
2016-08-20T09:45:12.366Z,24.16
2016-08-20T09:46:12.998Z,23.88
2016-08-20T09:47:12.358Z,23.87
2016-08-20T09:48:12.841Z,24.21
2016-08-20T09:49:11.295Z,24.51
2016-08-20T09:50:12.529Z,25.84
2016-08-20T09:51:11.779Z,25.72
2016-08-20T09:52:13.250Z,25.54
2016-08-20T09:53:11.221Z,26.18
2016-08-20T09:54:11.065Z,26.19
2016-08-20T09:55:12.193Z,26.43
2016-08-20T09:56:11.706Z,26.33
2016-08-20T09:57:12.916Z,25.83
2016-08-20T09:58:10.897Z,26.09
2016-08-20T09:59:11.686Z,26.18
2016-08-20T10:00:12.257Z,26.19
2016-08-20T10:01:13.712Z,25.8
2016-08-20T10:02:13.468Z,25.7
2016-08-20T10:03:12.316Z,24.43
2016-08-20T10:04:12.265Z,23.93
2016-08-20T10:05:13.823Z,23.98
2016-08-20T10:06:12.311Z,23.88
2016-08-20T10:07:12.213Z,24.43
2016-08-20T10:08:12.543Z,24.33
2016-08-20T10:09:11.551Z,24.21
2016-08-20T10:10:12.547Z,24.28
2016-08-20T10:11:12.852Z,24.29
2016-08-20T10:12:12.909Z,24.18
2016-08-20T10:13:12.839Z,24.17
2016-08-20T10:14:15.673Z,23.47
2016-08-20T10:15:15.111Z,22.99
2016-08-20T10:16:14.628Z,22.8
2016-08-20T10:17:13.470Z,22.55
2016-08-20T10:18:14.422Z,22.35
2016-08-20T10:19:13.845Z,22.41
2016-08-20T10:20:14.526Z,22.78
2016-08-20T10:21:15.302Z,23.23
2016-08-20T10:22:14.443Z,23.21
2016-08-20T10:23:13.983Z,22.85
2016-08-20T10:24:12.508Z,22.85
2016-08-20T10:25:13.813Z,22.72
2016-08-20T10:26:11.625Z,22.85
2016-08-20T10:27:13.065Z,22.98
2016-08-20T10:28:14.026Z,23
2016-08-20T10:29:12.294Z,23.48
2016-08-20T10:30:13.895Z,23.8
2016-08-20T10:31:12.836Z,23.87
2016-08-20T10:32:13.508Z,23.93
2016-08-20T10:33:12.384Z,23.99
2016-08-20T10:34:13.800Z,23.81
2016-08-20T10:35:12.811Z,23.54
2016-08-20T10:36:12.661Z,23.54
2016-08-20T10:37:12.298Z,23.66
2016-08-20T10:38:13.028Z,23.95
2016-08-20T10:39:13.221Z,23.87
2016-08-20T10:40:13.631Z,23.84
2016-08-20T10:41:13.351Z,23.63
2016-08-20T10:42:12.860Z,23.59
2016-08-20T10:43:13.196Z,23.58
2016-08-20T10:44:13.221Z,23.27
2016-08-20T10:45:14.084Z,23.06
2016-08-20T10:46:14.567Z,23.05
2016-08-20T10:47:14.307Z,22.87
2016-08-20T10:48:13.948Z,22.9
2016-08-20T10:49:13.569Z,22.76
2016-08-20T10:50:13.781Z,22.87
2016-08-20T10:51:14.086Z,22.54
2016-08-20T10:52:14.045Z,22.36
2016-08-20T10:53:12.821Z,22.3
2016-08-20T10:54:14.034Z,22.36
2016-08-20T10:55:13.552Z,22.51
2016-08-20T10:56:14.348Z,22.6
2016-08-20T10:57:14.036Z,22.45
2016-08-20T10:58:13.735Z,22.45
2016-08-20T10:59:15.710Z,22.17
2016-08-20T11:00:14.518Z,22.17
2016-08-20T11:01:14.172Z,22.15
2016-08-20T11:02:14.049Z,22.08
2016-08-20T11:03:16.180Z,21.88
2016-08-20T11:04:13.063Z,21.91
2016-08-20T11:05:14.490Z,21.7
2016-08-20T11:06:13.863Z,21.75
2016-08-20T11:07:14.514Z,21.89
2016-08-20T11:08:14.405Z,21.98
2016-08-20T11:09:14.676Z,22.02
2016-08-20T11:10:13.616Z,22.22
2016-08-20T11:11:13.954Z,22.14
2016-08-20T11:12:13.337Z,22.13
2016-08-20T11:13:15.739Z,21.82
2016-08-20T11:14:13.315Z,21.48
2016-08-20T11:15:15.141Z,21.29
2016-08-20T11:16:15.942Z,21.2
2016-08-20T11:17:14.496Z,21.15
2016-08-20T11:18:14.115Z,20.6
2016-08-20T11:19:14.920Z,20.6
2016-08-20T11:20:14.545Z,20.63
2016-08-20T11:21:14.272Z,20.74
2016-08-20T11:22:16.408Z,20.96
2016-08-20T11:23:14.915Z,21
2016-08-20T11:24:14.869Z,21.35
2016-08-20T11:25:14.895Z,21.4
2016-08-20T11:26:14.887Z,21.4
2016-08-20T11:27:15.331Z,21.61
2016-08-20T11:28:17.194Z,21.6
2016-08-20T11:29:15.278Z,21.75
2016-08-20T11:30:14.220Z,22.32
2016-08-20T11:31:14.532Z,22.81
2016-08-20T11:32:14.108Z,23.23
2016-08-20T11:33:15.431Z,22.73
2016-08-20T11:34:15.568Z,22.51
2016-08-20T11:35:15.296Z,22.36
2016-08-20T11:36:14.970Z,22.36
2016-08-20T11:37:16.728Z,22.43
2016-08-20T11:38:14.062Z,23.02
2016-08-20T11:39:16.988Z,23.56
2016-08-20T11:40:15.801Z,23.18
2016-08-20T11:41:14.734Z,22.5
2016-08-20T11:42:16.665Z,22.6
2016-08-20T11:43:14.173Z,22.48
2016-08-20T11:44:14.247Z,22.43
2016-08-20T11:45:17.143Z,22.72
2016-08-20T11:46:15.127Z,22.84
2016-08-20T11:47:15.624Z,22.45
2016-08-20T11:48:16.921Z,22.84
2016-08-20T11:49:14.713Z,23.4
2016-08-20T11:50:14.963Z,23.41
2016-08-20T11:51:15.539Z,23.36
2016-08-20T11:52:14.559Z,23.47
2016-08-20T11:53:14.962Z,23.43
2016-08-20T11:54:15.792Z,23.55
2016-08-20T11:55:15.568Z,23.59
2016-08-20T11:56:17.379Z,23.61
2016-08-20T11:57:15.991Z,23.32
2016-08-20T11:58:17.040Z,23.06
2016-08-20T11:59:15.302Z,22.78
2016-08-20T12:00:16.079Z,23.06
2016-08-20T12:01:15.807Z,23.27
2016-08-20T12:02:15.594Z,23
2016-08-20T12:03:16.236Z,23.27
2016-08-20T12:04:15.364Z,23.37
2016-08-20T12:05:17.273Z,23.54
2016-08-20T12:06:14.962Z,23.36
2016-08-20T12:07:16.795Z,23.66
2016-08-20T12:08:16.542Z,23.41
2016-08-20T12:09:17.955Z,23.77
2016-08-20T12:10:17.266Z,23.81
2016-08-20T12:11:16.263Z,23.84
2016-08-20T12:12:16.431Z,24.03
2016-08-20T12:13:16.382Z,23.86
2016-08-20T12:14:16.206Z,24.76
2016-08-20T12:15:18.737Z,24.43
2016-08-20T12:16:17.297Z,24.74
2016-08-20T12:17:18.167Z,24.47
2016-08-20T12:18:15.352Z,24.05
2016-08-20T12:19:15.955Z,23.77
2016-08-20T12:20:16.024Z,23.41
2016-08-20T12:21:16.737Z,23.48
2016-08-20T12:22:16.678Z,23.87
2016-08-20T12:23:17.166Z,23.73
2016-08-20T12:24:15.181Z,23.78
2016-08-20T12:25:16.891Z,23.92
2016-08-20T12:26:16.040Z,24.2
2016-08-20T12:27:16.686Z,24.24
2016-08-20T12:28:17.035Z,24.57
2016-08-20T12:29:16.354Z,24.69
2016-08-20T12:30:16.084Z,24.7
2016-08-20T12:31:18.544Z,24.69
2016-08-20T12:32:15.175Z,25.14
2016-08-20T12:33:15.781Z,25.33
2016-08-20T12:34:15.686Z,24.7
2016-08-20T12:35:16.753Z,25.25
2016-08-20T12:36:16.022Z,25.11
2016-08-20T12:37:17.270Z,25.17
2016-08-20T12:38:17.065Z,24.61
2016-08-20T12:39:17.123Z,24.14
2016-08-20T12:40:15.859Z,24.11
2016-08-20T12:41:17.020Z,24.65
2016-08-20T12:42:18.518Z,24.88
2016-08-20T12:43:17.501Z,25.18
2016-08-20T12:44:15.635Z,24.38
2016-08-20T12:45:16.688Z,24.53
2016-08-20T12:46:17.398Z,24.11
2016-08-20T12:47:16.028Z,23.95
2016-08-20T12:48:16.103Z,24.47
2016-08-20T12:49:17.765Z,24.57
2016-08-20T12:50:16.776Z,24.7
2016-08-20T12:51:17.967Z,24.1
2016-08-20T12:52:16.581Z,23.88
2016-08-20T12:53:17.529Z,23.87
2016-08-20T12:54:17.109Z,23.78
2016-08-20T12:55:18.077Z,24.4
2016-08-20T12:56:18.075Z,24.32